<?xml version="1.0" encoding="UTF-8" standalone="no" ?>
<gpx xmlns="http://www.topografix.com/GPX/1/1" xmlns:xsi="http://www.w3.org/2001/XMLSchema-instance" xsi:schemaLocation="http://www.topografix.com/GPX/1/1 http://www.topografix.com/GPX/1/1/gpx.xsd" version="1.1" creator="VisuGPX - https://www.visugpx.com">
  <metadata>
    <name>VacancesDricouZoe</name>
  </metadata>
  <trk>
    <name><![CDATA[Journal actif: 2021-07-01 10:26]]></name>
    <trkseg>
      <trkpt lat="45.18025" lon="-1.08218">
        <ele>13.12</ele>
        <time>2021-07-01T12:26:45Z</time>
      </trkpt>
      <trkpt lat="45.18025" lon="-1.08215">
        <ele>10.23</ele>
        <time>2021-07-01T12:27:32Z</time>
      </trkpt>
      <trkpt lat="45.18025" lon="-1.08219">
        <ele>11.19</ele>
        <time>2021-07-01T12:27:41Z</time>
      </trkpt>
      <trkpt lat="45.18027" lon="-1.08224">
        <ele>11.19</ele>
        <time>2021-07-01T12:27:45Z</time>
      </trkpt>
      <trkpt lat="45.18044" lon="-1.08214">
        <ele>8.79</ele>
        <time>2021-07-01T12:27:58Z</time>
      </trkpt>
      <trkpt lat="45.18055" lon="-1.08171">
        <ele>8.79</ele>
        <time>2021-07-01T12:28:14Z</time>
      </trkpt>
      <trkpt lat="45.18072" lon="-1.08119">
        <ele>7.83</ele>
        <time>2021-07-01T12:28:31Z</time>
      </trkpt>
      <trkpt lat="45.18087" lon="-1.08089">
        <ele>8.31</ele>
        <time>2021-07-01T12:28:47Z</time>
      </trkpt>
      <trkpt lat="45.18087" lon="-1.08088">
        <ele>8.31</ele>
        <time>2021-07-01T12:29:07Z</time>
      </trkpt>
      <trkpt lat="45.18087" lon="-1.08087">
        <ele>8.31</ele>
        <time>2021-07-01T12:29:32Z</time>
      </trkpt>
      <trkpt lat="45.18094" lon="-1.08081">
        <ele>7.83</ele>
        <time>2021-07-01T12:31:18Z</time>
      </trkpt>
      <trkpt lat="45.18095" lon="-1.08081">
        <ele>7.83</ele>
        <time>2021-07-01T12:31:19Z</time>
      </trkpt>
      <trkpt lat="45.18099" lon="-1.08082">
        <ele>7.83</ele>
        <time>2021-07-01T12:31:22Z</time>
      </trkpt>
      <trkpt lat="45.18101" lon="-1.08084">
        <ele>7.35</ele>
        <time>2021-07-01T12:31:23Z</time>
      </trkpt>
      <trkpt lat="45.18104" lon="-1.08086">
        <ele>7.35</ele>
        <time>2021-07-01T12:31:24Z</time>
      </trkpt>
      <trkpt lat="45.18107" lon="-1.08088">
        <ele>7.35</ele>
        <time>2021-07-01T12:31:25Z</time>
      </trkpt>
      <trkpt lat="45.18109" lon="-1.08089">
        <ele>7.35</ele>
        <time>2021-07-01T12:31:26Z</time>
      </trkpt>
      <trkpt lat="45.1811" lon="-1.0809">
        <ele>6.87</ele>
        <time>2021-07-01T12:31:27Z</time>
      </trkpt>
      <trkpt lat="45.18112" lon="-1.08091">
        <ele>6.87</ele>
        <time>2021-07-01T12:31:28Z</time>
      </trkpt>
      <trkpt lat="45.18112" lon="-1.08091">
        <ele>7.83</ele>
        <time>2021-07-01T12:31:48Z</time>
      </trkpt>
      <trkpt lat="45.18124" lon="-1.08099">
        <ele>7.35</ele>
        <time>2021-07-01T12:32:33Z</time>
      </trkpt>
      <trkpt lat="45.18127" lon="-1.081">
        <ele>7.83</ele>
        <time>2021-07-01T12:32:35Z</time>
      </trkpt>
      <trkpt lat="45.18134" lon="-1.08094">
        <ele>7.83</ele>
        <time>2021-07-01T12:32:36Z</time>
      </trkpt>
      <trkpt lat="45.18134" lon="-1.08091">
        <ele>7.83</ele>
        <time>2021-07-01T12:32:37Z</time>
      </trkpt>
      <trkpt lat="45.18135" lon="-1.08086">
        <ele>7.83</ele>
        <time>2021-07-01T12:32:38Z</time>
      </trkpt>
      <trkpt lat="45.18136" lon="-1.08081">
        <ele>7.83</ele>
        <time>2021-07-01T12:32:39Z</time>
      </trkpt>
      <trkpt lat="45.18156" lon="-1.07982">
        <ele>8.31</ele>
        <time>2021-07-01T12:32:49Z</time>
      </trkpt>
      <trkpt lat="45.18196" lon="-1.07782">
        <ele>8.79</ele>
        <time>2021-07-01T12:33:06Z</time>
      </trkpt>
      <trkpt lat="45.18239" lon="-1.07547">
        <ele>9.75</ele>
        <time>2021-07-01T12:33:21Z</time>
      </trkpt>
      <trkpt lat="45.1832" lon="-1.07125">
        <ele>11.19</ele>
        <time>2021-07-01T12:33:47Z</time>
      </trkpt>
      <trkpt lat="45.18355" lon="-1.0694">
        <ele>11.67</ele>
        <time>2021-07-01T12:34:00Z</time>
      </trkpt>
      <trkpt lat="45.18416" lon="-1.06622">
        <ele>11.19</ele>
        <time>2021-07-01T12:34:23Z</time>
      </trkpt>
      <trkpt lat="45.18455" lon="-1.0641">
        <ele>11.19</ele>
        <time>2021-07-01T12:34:40Z</time>
      </trkpt>
      <trkpt lat="45.18459" lon="-1.06392">
        <ele>11.19</ele>
        <time>2021-07-01T12:34:48Z</time>
      </trkpt>
      <trkpt lat="45.18462" lon="-1.06379">
        <ele>11.19</ele>
        <time>2021-07-01T12:34:52Z</time>
      </trkpt>
      <trkpt lat="45.18464" lon="-1.06373">
        <ele>11.19</ele>
        <time>2021-07-01T12:34:53Z</time>
      </trkpt>
      <trkpt lat="45.18464" lon="-1.0637">
        <ele>11.19</ele>
        <time>2021-07-01T12:34:54Z</time>
      </trkpt>
      <trkpt lat="45.1846" lon="-1.06351">
        <ele>11.19</ele>
        <time>2021-07-01T12:34:55Z</time>
      </trkpt>
      <trkpt lat="45.1846" lon="-1.06351">
        <ele>11.19</ele>
        <time>2021-07-01T12:34:56Z</time>
      </trkpt>
      <trkpt lat="45.18464" lon="-1.06345">
        <ele>11.19</ele>
        <time>2021-07-01T12:34:57Z</time>
      </trkpt>
      <trkpt lat="45.18471" lon="-1.06337">
        <ele>11.19</ele>
        <time>2021-07-01T12:34:58Z</time>
      </trkpt>
      <trkpt lat="45.18474" lon="-1.06319">
        <ele>11.19</ele>
        <time>2021-07-01T12:34:59Z</time>
      </trkpt>
      <trkpt lat="45.18497" lon="-1.06201">
        <ele>11.19</ele>
        <time>2021-07-01T12:35:10Z</time>
      </trkpt>
      <trkpt lat="45.18516" lon="-1.06104">
        <ele>11.19</ele>
        <time>2021-07-01T12:35:22Z</time>
      </trkpt>
      <trkpt lat="45.18516" lon="-1.06101">
        <ele>11.19</ele>
        <time>2021-07-01T12:35:35Z</time>
      </trkpt>
      <trkpt lat="45.18522" lon="-1.0607">
        <ele>11.19</ele>
        <time>2021-07-01T12:35:50Z</time>
      </trkpt>
      <trkpt lat="45.18543" lon="-1.05964">
        <ele>11.67</ele>
        <time>2021-07-01T12:36:05Z</time>
      </trkpt>
      <trkpt lat="45.18551" lon="-1.05924">
        <ele>11.67</ele>
        <time>2021-07-01T12:36:16Z</time>
      </trkpt>
      <trkpt lat="45.18561" lon="-1.05869">
        <ele>11.67</ele>
        <time>2021-07-01T12:36:26Z</time>
      </trkpt>
      <trkpt lat="45.18561" lon="-1.05863">
        <ele>11.19</ele>
        <time>2021-07-01T12:36:27Z</time>
      </trkpt>
      <trkpt lat="45.18561" lon="-1.05857">
        <ele>11.19</ele>
        <time>2021-07-01T12:36:28Z</time>
      </trkpt>
      <trkpt lat="45.18561" lon="-1.0585">
        <ele>10.71</ele>
        <time>2021-07-01T12:36:29Z</time>
      </trkpt>
      <trkpt lat="45.1856" lon="-1.05843">
        <ele>10.71</ele>
        <time>2021-07-01T12:36:30Z</time>
      </trkpt>
      <trkpt lat="45.18548" lon="-1.05738">
        <ele>8.31</ele>
        <time>2021-07-01T12:36:47Z</time>
      </trkpt>
      <trkpt lat="45.18547" lon="-1.05727">
        <ele>8.79</ele>
        <time>2021-07-01T12:36:50Z</time>
      </trkpt>
      <trkpt lat="45.18543" lon="-1.05719">
        <ele>8.79</ele>
        <time>2021-07-01T12:36:51Z</time>
      </trkpt>
      <trkpt lat="45.1854" lon="-1.05719">
        <ele>8.79</ele>
        <time>2021-07-01T12:36:52Z</time>
      </trkpt>
      <trkpt lat="45.18489" lon="-1.05705">
        <ele>8.79</ele>
        <time>2021-07-01T12:37:02Z</time>
      </trkpt>
      <trkpt lat="45.18392" lon="-1.05677">
        <ele>9.27</ele>
        <time>2021-07-01T12:37:15Z</time>
      </trkpt>
      <trkpt lat="45.18294" lon="-1.05649">
        <ele>10.71</ele>
        <time>2021-07-01T12:37:28Z</time>
      </trkpt>
      <trkpt lat="45.18226" lon="-1.05628">
        <ele>11.19</ele>
        <time>2021-07-01T12:37:38Z</time>
      </trkpt>
      <trkpt lat="45.18073" lon="-1.05582">
        <ele>11.67</ele>
        <time>2021-07-01T12:37:52Z</time>
      </trkpt>
      <trkpt lat="45.1789" lon="-1.05526">
        <ele>13.6</ele>
        <time>2021-07-01T12:38:09Z</time>
      </trkpt>
      <trkpt lat="45.17685" lon="-1.05465">
        <ele>14.08</ele>
        <time>2021-07-01T12:38:26Z</time>
      </trkpt>
      <trkpt lat="45.17458" lon="-1.05399">
        <ele>14.56</ele>
        <time>2021-07-01T12:38:44Z</time>
      </trkpt>
      <trkpt lat="45.17206" lon="-1.05323">
        <ele>15.52</ele>
        <time>2021-07-01T12:39:04Z</time>
      </trkpt>
      <trkpt lat="45.1705" lon="-1.05276">
        <ele>15.52</ele>
        <time>2021-07-01T12:39:15Z</time>
      </trkpt>
      <trkpt lat="45.16764" lon="-1.05191">
        <ele>16</ele>
        <time>2021-07-01T12:39:33Z</time>
      </trkpt>
      <trkpt lat="45.1635" lon="-1.05068">
        <ele>16.48</ele>
        <time>2021-07-01T12:39:56Z</time>
      </trkpt>
      <trkpt lat="45.15804" lon="-1.04905">
        <ele>16.96</ele>
        <time>2021-07-01T12:40:27Z</time>
      </trkpt>
      <trkpt lat="45.15544" lon="-1.04827">
        <ele>16</ele>
        <time>2021-07-01T12:40:41Z</time>
      </trkpt>
      <trkpt lat="45.15231" lon="-1.04735">
        <ele>16.48</ele>
        <time>2021-07-01T12:40:57Z</time>
      </trkpt>
      <trkpt lat="45.14916" lon="-1.04641">
        <ele>13.6</ele>
        <time>2021-07-01T12:41:14Z</time>
      </trkpt>
      <trkpt lat="45.14595" lon="-1.04546">
        <ele>15.04</ele>
        <time>2021-07-01T12:41:31Z</time>
      </trkpt>
      <trkpt lat="45.14402" lon="-1.04517">
        <ele>11.19</ele>
        <time>2021-07-01T12:41:40Z</time>
      </trkpt>
      <trkpt lat="45.13977" lon="-1.0452">
        <ele>13.12</ele>
        <time>2021-07-01T12:42:02Z</time>
      </trkpt>
      <trkpt lat="45.13459" lon="-1.04527">
        <ele>12.15</ele>
        <time>2021-07-01T12:42:28Z</time>
      </trkpt>
      <trkpt lat="45.13153" lon="-1.04531">
        <ele>11.67</ele>
        <time>2021-07-01T12:42:44Z</time>
      </trkpt>
      <trkpt lat="45.12875" lon="-1.04535">
        <ele>9.75</ele>
        <time>2021-07-01T12:42:58Z</time>
      </trkpt>
      <trkpt lat="45.1246" lon="-1.0454">
        <ele>7.35</ele>
        <time>2021-07-01T12:43:18Z</time>
      </trkpt>
      <trkpt lat="45.11723" lon="-1.04549">
        <ele>7.35</ele>
        <time>2021-07-01T12:43:53Z</time>
      </trkpt>
      <trkpt lat="45.11125" lon="-1.04559">
        <ele>9.75</ele>
        <time>2021-07-01T12:44:23Z</time>
      </trkpt>
      <trkpt lat="45.10824" lon="-1.04564">
        <ele>9.27</ele>
        <time>2021-07-01T12:44:38Z</time>
      </trkpt>
      <trkpt lat="45.10378" lon="-1.0457">
        <ele>8.31</ele>
        <time>2021-07-01T12:45:00Z</time>
      </trkpt>
      <trkpt lat="45.09825" lon="-1.04578">
        <ele>6.87</ele>
        <time>2021-07-01T12:45:27Z</time>
      </trkpt>
      <trkpt lat="45.09522" lon="-1.04583">
        <ele>3.98</ele>
        <time>2021-07-01T12:45:43Z</time>
      </trkpt>
      <trkpt lat="45.09188" lon="-1.04589">
        <ele>7.83</ele>
        <time>2021-07-01T12:46:01Z</time>
      </trkpt>
      <trkpt lat="45.089" lon="-1.04592">
        <ele>3.5</ele>
        <time>2021-07-01T12:46:16Z</time>
      </trkpt>
      <trkpt lat="45.08619" lon="-1.04597">
        <ele>2.06</ele>
        <time>2021-07-01T12:46:31Z</time>
      </trkpt>
      <trkpt lat="45.08403" lon="-1.04602">
        <ele>5.91</ele>
        <time>2021-07-01T12:46:44Z</time>
      </trkpt>
      <trkpt lat="45.08322" lon="-1.04604">
        <ele>2.06</ele>
        <time>2021-07-01T12:46:51Z</time>
      </trkpt>
      <trkpt lat="45.08253" lon="-1.04604">
        <ele>-0.34</ele>
        <time>2021-07-01T12:47:00Z</time>
      </trkpt>
      <trkpt lat="45.08083" lon="-1.04608">
        <ele>4.94</ele>
        <time>2021-07-01T12:47:15Z</time>
      </trkpt>
      <trkpt lat="45.07932" lon="-1.04609">
        <ele>13.12</ele>
        <time>2021-07-01T12:47:29Z</time>
      </trkpt>
      <trkpt lat="45.07878" lon="-1.0461">
        <ele>13.12</ele>
        <time>2021-07-01T12:47:38Z</time>
      </trkpt>
      <trkpt lat="45.07825" lon="-1.04606">
        <ele>12.63</ele>
        <time>2021-07-01T12:47:46Z</time>
      </trkpt>
      <trkpt lat="45.07817" lon="-1.04613">
        <ele>12.63</ele>
        <time>2021-07-01T12:47:48Z</time>
      </trkpt>
      <trkpt lat="45.07815" lon="-1.04613">
        <ele>12.63</ele>
        <time>2021-07-01T12:47:49Z</time>
      </trkpt>
      <trkpt lat="45.07753" lon="-1.04585">
        <ele>8.31</ele>
        <time>2021-07-01T12:47:57Z</time>
      </trkpt>
      <trkpt lat="45.07583" lon="-1.04536">
        <ele>10.23</ele>
        <time>2021-07-01T12:48:12Z</time>
      </trkpt>
      <trkpt lat="45.07489" lon="-1.04506">
        <ele>13.12</ele>
        <time>2021-07-01T12:48:22Z</time>
      </trkpt>
      <trkpt lat="45.07396" lon="-1.045">
        <ele>14.56</ele>
        <time>2021-07-01T12:48:31Z</time>
      </trkpt>
      <trkpt lat="45.07385" lon="-1.04503">
        <ele>15.04</ele>
        <time>2021-07-01T12:48:32Z</time>
      </trkpt>
      <trkpt lat="45.07209" lon="-1.04578">
        <ele>16</ele>
        <time>2021-07-01T12:48:45Z</time>
      </trkpt>
      <trkpt lat="45.07051" lon="-1.04649">
        <ele>11.67</ele>
        <time>2021-07-01T12:48:55Z</time>
      </trkpt>
      <trkpt lat="45.06798" lon="-1.04762">
        <ele>5.91</ele>
        <time>2021-07-01T12:49:09Z</time>
      </trkpt>
      <trkpt lat="45.06519" lon="-1.04887">
        <ele>3.5</ele>
        <time>2021-07-01T12:49:24Z</time>
      </trkpt>
      <trkpt lat="45.06229" lon="-1.05017">
        <ele>-2.75</ele>
        <time>2021-07-01T12:49:39Z</time>
      </trkpt>
      <trkpt lat="45.05872" lon="-1.05178">
        <ele>-0.34</ele>
        <time>2021-07-01T12:49:57Z</time>
      </trkpt>
      <trkpt lat="45.05371" lon="-1.05404">
        <ele>13.6</ele>
        <time>2021-07-01T12:50:22Z</time>
      </trkpt>
      <trkpt lat="45.04772" lon="-1.05675">
        <ele>14.56</ele>
        <time>2021-07-01T12:50:52Z</time>
      </trkpt>
      <trkpt lat="45.04439" lon="-1.058">
        <ele>11.67</ele>
        <time>2021-07-01T12:51:08Z</time>
      </trkpt>
      <trkpt lat="45.03951" lon="-1.05936">
        <ele>11.19</ele>
        <time>2021-07-01T12:51:31Z</time>
      </trkpt>
      <trkpt lat="45.03609" lon="-1.06031">
        <ele>5.42</ele>
        <time>2021-07-01T12:51:47Z</time>
      </trkpt>
      <trkpt lat="45.03272" lon="-1.06125">
        <ele>0.62</ele>
        <time>2021-07-01T12:52:03Z</time>
      </trkpt>
      <trkpt lat="45.02942" lon="-1.06217">
        <ele>-2.75</ele>
        <time>2021-07-01T12:52:19Z</time>
      </trkpt>
      <trkpt lat="45.02722" lon="-1.06278">
        <ele>-5.63</ele>
        <time>2021-07-01T12:52:30Z</time>
      </trkpt>
      <trkpt lat="45.02299" lon="-1.06399">
        <ele>-0.34</ele>
        <time>2021-07-01T12:52:50Z</time>
      </trkpt>
      <trkpt lat="45.01993" lon="-1.06479">
        <ele>4.94</ele>
        <time>2021-07-01T12:53:06Z</time>
      </trkpt>
      <trkpt lat="45.01506" lon="-1.06593">
        <ele>10.23</ele>
        <time>2021-07-01T12:53:30Z</time>
      </trkpt>
      <trkpt lat="45.00856" lon="-1.06742">
        <ele>11.19</ele>
        <time>2021-07-01T12:54:02Z</time>
      </trkpt>
      <trkpt lat="45.00428" lon="-1.06844">
        <ele>10.23</ele>
        <time>2021-07-01T12:54:24Z</time>
      </trkpt>
      <trkpt lat="45.00281" lon="-1.06935">
        <ele>5.91</ele>
        <time>2021-07-01T12:54:32Z</time>
      </trkpt>
      <trkpt lat="44.99884" lon="-1.07207">
        <ele>6.87</ele>
        <time>2021-07-01T12:54:52Z</time>
      </trkpt>
      <trkpt lat="44.99461" lon="-1.07502">
        <ele>5.42</ele>
        <time>2021-07-01T12:55:16Z</time>
      </trkpt>
      <trkpt lat="44.99214" lon="-1.0767">
        <ele>3.02</ele>
        <time>2021-07-01T12:55:31Z</time>
      </trkpt>
      <trkpt lat="44.99049" lon="-1.07783">
        <ele>3.02</ele>
        <time>2021-07-01T12:55:43Z</time>
      </trkpt>
      <trkpt lat="44.99001" lon="-1.07818">
        <ele>3.98</ele>
        <time>2021-07-01T12:55:51Z</time>
      </trkpt>
      <trkpt lat="44.98996" lon="-1.07821">
        <ele>4.46</ele>
        <time>2021-07-01T12:55:52Z</time>
      </trkpt>
      <trkpt lat="44.98994" lon="-1.07846">
        <ele>5.42</ele>
        <time>2021-07-01T12:55:54Z</time>
      </trkpt>
      <trkpt lat="44.98989" lon="-1.07853">
        <ele>5.42</ele>
        <time>2021-07-01T12:55:55Z</time>
      </trkpt>
      <trkpt lat="44.98981" lon="-1.07857">
        <ele>4.94</ele>
        <time>2021-07-01T12:55:56Z</time>
      </trkpt>
      <trkpt lat="44.98979" lon="-1.07857">
        <ele>4.94</ele>
        <time>2021-07-01T12:55:57Z</time>
      </trkpt>
      <trkpt lat="44.98965" lon="-1.07847">
        <ele>4.94</ele>
        <time>2021-07-01T12:55:58Z</time>
      </trkpt>
      <trkpt lat="44.98958" lon="-1.07851">
        <ele>5.42</ele>
        <time>2021-07-01T12:55:59Z</time>
      </trkpt>
      <trkpt lat="44.98952" lon="-1.07855">
        <ele>5.42</ele>
        <time>2021-07-01T12:56:00Z</time>
      </trkpt>
      <trkpt lat="44.98945" lon="-1.0786">
        <ele>5.42</ele>
        <time>2021-07-01T12:56:01Z</time>
      </trkpt>
      <trkpt lat="44.98854" lon="-1.0792">
        <ele>1.1</ele>
        <time>2021-07-01T12:56:11Z</time>
      </trkpt>
      <trkpt lat="44.98743" lon="-1.07998">
        <ele>-6.11</ele>
        <time>2021-07-01T12:56:23Z</time>
      </trkpt>
      <trkpt lat="44.98664" lon="-1.08046">
        <ele>-8.51</ele>
        <time>2021-07-01T12:56:34Z</time>
      </trkpt>
      <trkpt lat="44.98602" lon="-1.08056">
        <ele>0.14</ele>
        <time>2021-07-01T12:56:45Z</time>
      </trkpt>
      <trkpt lat="44.98548" lon="-1.08056">
        <ele>7.35</ele>
        <time>2021-07-01T12:56:56Z</time>
      </trkpt>
      <trkpt lat="44.98514" lon="-1.08069">
        <ele>8.31</ele>
        <time>2021-07-01T12:57:07Z</time>
      </trkpt>
      <trkpt lat="44.9851" lon="-1.08068">
        <ele>8.31</ele>
        <time>2021-07-01T12:57:08Z</time>
      </trkpt>
      <trkpt lat="44.98506" lon="-1.08066">
        <ele>8.31</ele>
        <time>2021-07-01T12:57:09Z</time>
      </trkpt>
      <trkpt lat="44.98501" lon="-1.08064">
        <ele>8.31</ele>
        <time>2021-07-01T12:57:10Z</time>
      </trkpt>
      <trkpt lat="44.98436" lon="-1.08049">
        <ele>8.79</ele>
        <time>2021-07-01T12:57:20Z</time>
      </trkpt>
      <trkpt lat="44.98314" lon="-1.08042">
        <ele>8.79</ele>
        <time>2021-07-01T12:57:33Z</time>
      </trkpt>
      <trkpt lat="44.98154" lon="-1.0802">
        <ele>7.35</ele>
        <time>2021-07-01T12:57:48Z</time>
      </trkpt>
      <trkpt lat="44.98025" lon="-1.07988">
        <ele>6.87</ele>
        <time>2021-07-01T12:58:04Z</time>
      </trkpt>
      <trkpt lat="44.9792" lon="-1.07961">
        <ele>7.35</ele>
        <time>2021-07-01T12:58:19Z</time>
      </trkpt>
      <trkpt lat="44.97843" lon="-1.07941">
        <ele>7.35</ele>
        <time>2021-07-01T12:58:34Z</time>
      </trkpt>
      <trkpt lat="44.97806" lon="-1.07921">
        <ele>7.35</ele>
        <time>2021-07-01T12:58:45Z</time>
      </trkpt>
      <trkpt lat="44.97802" lon="-1.0792">
        <ele>7.35</ele>
        <time>2021-07-01T12:58:46Z</time>
      </trkpt>
      <trkpt lat="44.97798" lon="-1.07918">
        <ele>7.35</ele>
        <time>2021-07-01T12:58:47Z</time>
      </trkpt>
      <trkpt lat="44.97744" lon="-1.07893">
        <ele>7.35</ele>
        <time>2021-07-01T12:59:02Z</time>
      </trkpt>
      <trkpt lat="44.97728" lon="-1.07884">
        <ele>7.83</ele>
        <time>2021-07-01T12:59:12Z</time>
      </trkpt>
      <trkpt lat="44.97728" lon="-1.07884">
        <ele>7.83</ele>
        <time>2021-07-01T12:59:40Z</time>
      </trkpt>
      <trkpt lat="44.97728" lon="-1.07884">
        <ele>7.83</ele>
        <time>2021-07-01T13:00:10Z</time>
      </trkpt>
      <trkpt lat="44.97701" lon="-1.0787">
        <ele>7.83</ele>
        <time>2021-07-01T13:00:33Z</time>
      </trkpt>
      <trkpt lat="44.97648" lon="-1.0784">
        <ele>7.83</ele>
        <time>2021-07-01T13:00:47Z</time>
      </trkpt>
      <trkpt lat="44.97612" lon="-1.07819">
        <ele>7.83</ele>
        <time>2021-07-01T13:01:00Z</time>
      </trkpt>
      <trkpt lat="44.97557" lon="-1.07788">
        <ele>7.83</ele>
        <time>2021-07-01T13:01:16Z</time>
      </trkpt>
      <trkpt lat="44.97473" lon="-1.0775">
        <ele>7.83</ele>
        <time>2021-07-01T13:01:31Z</time>
      </trkpt>
      <trkpt lat="44.97403" lon="-1.07718">
        <ele>7.83</ele>
        <time>2021-07-01T13:01:43Z</time>
      </trkpt>
      <trkpt lat="44.97314" lon="-1.07679">
        <ele>6.87</ele>
        <time>2021-07-01T13:01:59Z</time>
      </trkpt>
      <trkpt lat="44.97273" lon="-1.0766">
        <ele>5.91</ele>
        <time>2021-07-01T13:02:09Z</time>
      </trkpt>
      <trkpt lat="44.97208" lon="-1.07631">
        <ele>5.42</ele>
        <time>2021-07-01T13:02:19Z</time>
      </trkpt>
      <trkpt lat="44.97133" lon="-1.07598">
        <ele>5.91</ele>
        <time>2021-07-01T13:02:29Z</time>
      </trkpt>
      <trkpt lat="44.97055" lon="-1.07563">
        <ele>5.42</ele>
        <time>2021-07-01T13:02:39Z</time>
      </trkpt>
      <trkpt lat="44.96966" lon="-1.07523">
        <ele>5.42</ele>
        <time>2021-07-01T13:02:47Z</time>
      </trkpt>
      <trkpt lat="44.968" lon="-1.0745">
        <ele>6.39</ele>
        <time>2021-07-01T13:02:58Z</time>
      </trkpt>
      <trkpt lat="44.96544" lon="-1.07336">
        <ele>5.91</ele>
        <time>2021-07-01T13:03:13Z</time>
      </trkpt>
      <trkpt lat="44.96253" lon="-1.07207">
        <ele>7.83</ele>
        <time>2021-07-01T13:03:29Z</time>
      </trkpt>
      <trkpt lat="44.95973" lon="-1.07082">
        <ele>16</ele>
        <time>2021-07-01T13:03:44Z</time>
      </trkpt>
      <trkpt lat="44.95627" lon="-1.06928">
        <ele>11.19</ele>
        <time>2021-07-01T13:04:02Z</time>
      </trkpt>
      <trkpt lat="44.95318" lon="-1.06792">
        <ele>10.71</ele>
        <time>2021-07-01T13:04:18Z</time>
      </trkpt>
      <trkpt lat="44.95027" lon="-1.06663">
        <ele>12.15</ele>
        <time>2021-07-01T13:04:33Z</time>
      </trkpt>
      <trkpt lat="44.94749" lon="-1.0654">
        <ele>14.08</ele>
        <time>2021-07-01T13:04:48Z</time>
      </trkpt>
      <trkpt lat="44.94599" lon="-1.06503">
        <ele>13.6</ele>
        <time>2021-07-01T13:04:56Z</time>
      </trkpt>
      <trkpt lat="44.94327" lon="-1.06494">
        <ele>15.04</ele>
        <time>2021-07-01T13:05:10Z</time>
      </trkpt>
      <trkpt lat="44.94176" lon="-1.0652">
        <ele>14.56</ele>
        <time>2021-07-01T13:05:18Z</time>
      </trkpt>
      <trkpt lat="44.93924" lon="-1.0664">
        <ele>10.71</ele>
        <time>2021-07-01T13:05:31Z</time>
      </trkpt>
      <trkpt lat="44.93563" lon="-1.06816">
        <ele>8.79</ele>
        <time>2021-07-01T13:05:49Z</time>
      </trkpt>
      <trkpt lat="44.93167" lon="-1.07008">
        <ele>11.19</ele>
        <time>2021-07-01T13:06:07Z</time>
      </trkpt>
      <trkpt lat="44.92833" lon="-1.0717">
        <ele>11.67</ele>
        <time>2021-07-01T13:06:24Z</time>
      </trkpt>
      <trkpt lat="44.92283" lon="-1.07437">
        <ele>10.71</ele>
        <time>2021-07-01T13:06:50Z</time>
      </trkpt>
      <trkpt lat="44.91669" lon="-1.07734">
        <ele>12.15</ele>
        <time>2021-07-01T13:07:19Z</time>
      </trkpt>
      <trkpt lat="44.91378" lon="-1.07875">
        <ele>12.15</ele>
        <time>2021-07-01T13:07:33Z</time>
      </trkpt>
      <trkpt lat="44.91032" lon="-1.08042">
        <ele>11.19</ele>
        <time>2021-07-01T13:07:51Z</time>
      </trkpt>
      <trkpt lat="44.90773" lon="-1.08167">
        <ele>9.27</ele>
        <time>2021-07-01T13:08:04Z</time>
      </trkpt>
      <trkpt lat="44.90458" lon="-1.08318">
        <ele>9.75</ele>
        <time>2021-07-01T13:08:19Z</time>
      </trkpt>
      <trkpt lat="44.89896" lon="-1.08588">
        <ele>10.71</ele>
        <time>2021-07-01T13:08:45Z</time>
      </trkpt>
      <trkpt lat="44.89535" lon="-1.08761">
        <ele>14.08</ele>
        <time>2021-07-01T13:09:02Z</time>
      </trkpt>
      <trkpt lat="44.89342" lon="-1.08853">
        <ele>12.63</ele>
        <time>2021-07-01T13:09:12Z</time>
      </trkpt>
      <trkpt lat="44.89115" lon="-1.0896">
        <ele>13.6</ele>
        <time>2021-07-01T13:09:25Z</time>
      </trkpt>
      <trkpt lat="44.89066" lon="-1.08975">
        <ele>12.63</ele>
        <time>2021-07-01T13:09:28Z</time>
      </trkpt>
      <trkpt lat="44.8905" lon="-1.08976">
        <ele>12.63</ele>
        <time>2021-07-01T13:09:29Z</time>
      </trkpt>
      <trkpt lat="44.89034" lon="-1.08976">
        <ele>14.08</ele>
        <time>2021-07-01T13:09:30Z</time>
      </trkpt>
      <trkpt lat="44.89017" lon="-1.08977">
        <ele>14.56</ele>
        <time>2021-07-01T13:09:31Z</time>
      </trkpt>
      <trkpt lat="44.89002" lon="-1.08974">
        <ele>15.04</ele>
        <time>2021-07-01T13:09:32Z</time>
      </trkpt>
      <trkpt lat="44.88986" lon="-1.08968">
        <ele>15.04</ele>
        <time>2021-07-01T13:09:33Z</time>
      </trkpt>
      <trkpt lat="44.88971" lon="-1.08962">
        <ele>15.52</ele>
        <time>2021-07-01T13:09:34Z</time>
      </trkpt>
      <trkpt lat="44.88957" lon="-1.08953">
        <ele>15.52</ele>
        <time>2021-07-01T13:09:35Z</time>
      </trkpt>
      <trkpt lat="44.88943" lon="-1.08943">
        <ele>16</ele>
        <time>2021-07-01T13:09:36Z</time>
      </trkpt>
      <trkpt lat="44.88785" lon="-1.08827">
        <ele>16</ele>
        <time>2021-07-01T13:09:47Z</time>
      </trkpt>
      <trkpt lat="44.88601" lon="-1.08719">
        <ele>14.08</ele>
        <time>2021-07-01T13:09:58Z</time>
      </trkpt>
      <trkpt lat="44.88294" lon="-1.08576">
        <ele>15.04</ele>
        <time>2021-07-01T13:10:16Z</time>
      </trkpt>
      <trkpt lat="44.88021" lon="-1.08504">
        <ele>15.04</ele>
        <time>2021-07-01T13:10:32Z</time>
      </trkpt>
      <trkpt lat="44.87876" lon="-1.08483">
        <ele>14.08</ele>
        <time>2021-07-01T13:10:42Z</time>
      </trkpt>
      <trkpt lat="44.87679" lon="-1.08454">
        <ele>15.52</ele>
        <time>2021-07-01T13:10:57Z</time>
      </trkpt>
      <trkpt lat="44.87633" lon="-1.0845">
        <ele>15.04</ele>
        <time>2021-07-01T13:11:01Z</time>
      </trkpt>
      <trkpt lat="44.87622" lon="-1.08454">
        <ele>14.56</ele>
        <time>2021-07-01T13:11:02Z</time>
      </trkpt>
      <trkpt lat="44.87612" lon="-1.08458">
        <ele>14.56</ele>
        <time>2021-07-01T13:11:03Z</time>
      </trkpt>
      <trkpt lat="44.87602" lon="-1.08461">
        <ele>14.08</ele>
        <time>2021-07-01T13:11:04Z</time>
      </trkpt>
      <trkpt lat="44.87586" lon="-1.08467">
        <ele>14.08</ele>
        <time>2021-07-01T13:11:05Z</time>
      </trkpt>
      <trkpt lat="44.87561" lon="-1.08494">
        <ele>16</ele>
        <time>2021-07-01T13:11:11Z</time>
      </trkpt>
      <trkpt lat="44.87544" lon="-1.08512">
        <ele>15.52</ele>
        <time>2021-07-01T13:11:12Z</time>
      </trkpt>
      <trkpt lat="44.87544" lon="-1.08512">
        <ele>15.04</ele>
        <time>2021-07-01T13:11:13Z</time>
      </trkpt>
      <trkpt lat="44.8754" lon="-1.08524">
        <ele>14.56</ele>
        <time>2021-07-01T13:11:14Z</time>
      </trkpt>
      <trkpt lat="44.87537" lon="-1.08538">
        <ele>13.12</ele>
        <time>2021-07-01T13:11:15Z</time>
      </trkpt>
      <trkpt lat="44.87535" lon="-1.08554">
        <ele>12.15</ele>
        <time>2021-07-01T13:11:16Z</time>
      </trkpt>
      <trkpt lat="44.87535" lon="-1.0857">
        <ele>11.67</ele>
        <time>2021-07-01T13:11:17Z</time>
      </trkpt>
      <trkpt lat="44.87534" lon="-1.08587">
        <ele>11.67</ele>
        <time>2021-07-01T13:11:18Z</time>
      </trkpt>
      <trkpt lat="44.87518" lon="-1.08845">
        <ele>11.67</ele>
        <time>2021-07-01T13:11:33Z</time>
      </trkpt>
      <trkpt lat="44.87496" lon="-1.08977">
        <ele>11.67</ele>
        <time>2021-07-01T13:11:42Z</time>
      </trkpt>
      <trkpt lat="44.87491" lon="-1.08988">
        <ele>11.67</ele>
        <time>2021-07-01T13:11:43Z</time>
      </trkpt>
      <trkpt lat="44.87485" lon="-1.08999">
        <ele>11.19</ele>
        <time>2021-07-01T13:11:44Z</time>
      </trkpt>
      <trkpt lat="44.87478" lon="-1.09011">
        <ele>11.19</ele>
        <time>2021-07-01T13:11:45Z</time>
      </trkpt>
      <trkpt lat="44.87471" lon="-1.09023">
        <ele>12.15</ele>
        <time>2021-07-01T13:11:46Z</time>
      </trkpt>
      <trkpt lat="44.87452" lon="-1.09058">
        <ele>11.67</ele>
        <time>2021-07-01T13:11:49Z</time>
      </trkpt>
      <trkpt lat="44.87446" lon="-1.0907">
        <ele>12.15</ele>
        <time>2021-07-01T13:11:50Z</time>
      </trkpt>
      <trkpt lat="44.87441" lon="-1.09082">
        <ele>11.19</ele>
        <time>2021-07-01T13:11:51Z</time>
      </trkpt>
      <trkpt lat="44.87415" lon="-1.09166">
        <ele>11.19</ele>
        <time>2021-07-01T13:11:58Z</time>
      </trkpt>
      <trkpt lat="44.87411" lon="-1.09172">
        <ele>11.19</ele>
        <time>2021-07-01T13:11:59Z</time>
      </trkpt>
      <trkpt lat="44.87406" lon="-1.09176">
        <ele>11.19</ele>
        <time>2021-07-01T13:12:00Z</time>
      </trkpt>
      <trkpt lat="44.87401" lon="-1.0918">
        <ele>11.19</ele>
        <time>2021-07-01T13:12:01Z</time>
      </trkpt>
      <trkpt lat="44.87396" lon="-1.09184">
        <ele>11.19</ele>
        <time>2021-07-01T13:12:02Z</time>
      </trkpt>
      <trkpt lat="44.87327" lon="-1.0924">
        <ele>12.63</ele>
        <time>2021-07-01T13:12:13Z</time>
      </trkpt>
      <trkpt lat="44.87316" lon="-1.0925">
        <ele>13.12</ele>
        <time>2021-07-01T13:12:15Z</time>
      </trkpt>
      <trkpt lat="44.87312" lon="-1.09253">
        <ele>13.12</ele>
        <time>2021-07-01T13:12:16Z</time>
      </trkpt>
      <trkpt lat="44.87301" lon="-1.09275">
        <ele>14.08</ele>
        <time>2021-07-01T13:12:24Z</time>
      </trkpt>
      <trkpt lat="44.87301" lon="-1.09275">
        <ele>14.08</ele>
        <time>2021-07-01T13:12:25Z</time>
      </trkpt>
      <trkpt lat="44.87297" lon="-1.09274">
        <ele>14.08</ele>
        <time>2021-07-01T13:12:26Z</time>
      </trkpt>
      <trkpt lat="44.87294" lon="-1.09273">
        <ele>14.08</ele>
        <time>2021-07-01T13:12:27Z</time>
      </trkpt>
      <trkpt lat="44.87291" lon="-1.0927">
        <ele>13.6</ele>
        <time>2021-07-01T13:12:28Z</time>
      </trkpt>
      <trkpt lat="44.87291" lon="-1.09254">
        <ele>13.6</ele>
        <time>2021-07-01T13:12:29Z</time>
      </trkpt>
      <trkpt lat="44.87291" lon="-1.09254">
        <ele>13.6</ele>
        <time>2021-07-01T13:12:30Z</time>
      </trkpt>
      <trkpt lat="44.87287" lon="-1.09248">
        <ele>13.6</ele>
        <time>2021-07-01T13:12:31Z</time>
      </trkpt>
      <trkpt lat="44.87245" lon="-1.09197">
        <ele>13.6</ele>
        <time>2021-07-01T13:12:37Z</time>
      </trkpt>
      <trkpt lat="44.87245" lon="-1.09197">
        <ele>14.08</ele>
        <time>2021-07-01T13:12:38Z</time>
      </trkpt>
      <trkpt lat="44.87126" lon="-1.09113">
        <ele>13.6</ele>
        <time>2021-07-01T13:12:49Z</time>
      </trkpt>
      <trkpt lat="44.86946" lon="-1.09">
        <ele>13.6</ele>
        <time>2021-07-01T13:13:02Z</time>
      </trkpt>
      <trkpt lat="44.86933" lon="-1.08998">
        <ele>14.08</ele>
        <time>2021-07-01T13:13:03Z</time>
      </trkpt>
      <trkpt lat="44.86919" lon="-1.08997">
        <ele>13.6</ele>
        <time>2021-07-01T13:13:04Z</time>
      </trkpt>
      <trkpt lat="44.8687" lon="-1.08991">
        <ele>13.12</ele>
        <time>2021-07-01T13:13:10Z</time>
      </trkpt>
      <trkpt lat="44.86784" lon="-1.08983">
        <ele>14.08</ele>
        <time>2021-07-01T13:13:20Z</time>
      </trkpt>
      <trkpt lat="44.86728" lon="-1.0898">
        <ele>13.6</ele>
        <time>2021-07-01T13:13:25Z</time>
      </trkpt>
      <trkpt lat="44.86717" lon="-1.08986">
        <ele>11.67</ele>
        <time>2021-07-01T13:13:26Z</time>
      </trkpt>
      <trkpt lat="44.86705" lon="-1.08992">
        <ele>11.19</ele>
        <time>2021-07-01T13:13:27Z</time>
      </trkpt>
      <trkpt lat="44.86696" lon="-1.08997">
        <ele>12.15</ele>
        <time>2021-07-01T13:13:28Z</time>
      </trkpt>
      <trkpt lat="44.86689" lon="-1.09003">
        <ele>11.67</ele>
        <time>2021-07-01T13:13:29Z</time>
      </trkpt>
      <trkpt lat="44.86645" lon="-1.09044">
        <ele>13.12</ele>
        <time>2021-07-01T13:13:39Z</time>
      </trkpt>
      <trkpt lat="44.86589" lon="-1.09094">
        <ele>12.63</ele>
        <time>2021-07-01T13:13:49Z</time>
      </trkpt>
      <trkpt lat="44.86488" lon="-1.09187">
        <ele>13.6</ele>
        <time>2021-07-01T13:14:01Z</time>
      </trkpt>
      <trkpt lat="44.86361" lon="-1.09304">
        <ele>12.15</ele>
        <time>2021-07-01T13:14:12Z</time>
      </trkpt>
      <trkpt lat="44.86146" lon="-1.09506">
        <ele>11.67</ele>
        <time>2021-07-01T13:14:26Z</time>
      </trkpt>
      <trkpt lat="44.85937" lon="-1.09706">
        <ele>9.75</ele>
        <time>2021-07-01T13:14:43Z</time>
      </trkpt>
      <trkpt lat="44.85689" lon="-1.09945">
        <ele>9.75</ele>
        <time>2021-07-01T13:15:02Z</time>
      </trkpt>
      <trkpt lat="44.85583" lon="-1.1005">
        <ele>9.27</ele>
        <time>2021-07-01T13:15:12Z</time>
      </trkpt>
      <trkpt lat="44.85439" lon="-1.10189">
        <ele>9.75</ele>
        <time>2021-07-01T13:15:25Z</time>
      </trkpt>
      <trkpt lat="44.85298" lon="-1.10327">
        <ele>10.23</ele>
        <time>2021-07-01T13:15:40Z</time>
      </trkpt>
      <trkpt lat="44.85197" lon="-1.10455">
        <ele>8.31</ele>
        <time>2021-07-01T13:15:51Z</time>
      </trkpt>
      <trkpt lat="44.85087" lon="-1.10606">
        <ele>7.83</ele>
        <time>2021-07-01T13:16:04Z</time>
      </trkpt>
      <trkpt lat="44.84937" lon="-1.10821">
        <ele>6.87</ele>
        <time>2021-07-01T13:16:18Z</time>
      </trkpt>
      <trkpt lat="44.84714" lon="-1.11135">
        <ele>5.42</ele>
        <time>2021-07-01T13:16:37Z</time>
      </trkpt>
      <trkpt lat="44.84453" lon="-1.11502">
        <ele>3.98</ele>
        <time>2021-07-01T13:16:58Z</time>
      </trkpt>
      <trkpt lat="44.84236" lon="-1.11804">
        <ele>3.5</ele>
        <time>2021-07-01T13:17:15Z</time>
      </trkpt>
      <trkpt lat="44.84009" lon="-1.12122">
        <ele>5.42</ele>
        <time>2021-07-01T13:17:34Z</time>
      </trkpt>
      <trkpt lat="44.83963" lon="-1.12183">
        <ele>8.31</ele>
        <time>2021-07-01T13:17:40Z</time>
      </trkpt>
      <trkpt lat="44.83894" lon="-1.12281">
        <ele>1.58</ele>
        <time>2021-07-01T13:17:50Z</time>
      </trkpt>
      <trkpt lat="44.83781" lon="-1.12439">
        <ele>8.79</ele>
        <time>2021-07-01T13:18:01Z</time>
      </trkpt>
      <trkpt lat="44.83633" lon="-1.12631">
        <ele>6.87</ele>
        <time>2021-07-01T13:18:13Z</time>
      </trkpt>
      <trkpt lat="44.83619" lon="-1.12644">
        <ele>8.31</ele>
        <time>2021-07-01T13:18:14Z</time>
      </trkpt>
      <trkpt lat="44.83588" lon="-1.12663">
        <ele>9.75</ele>
        <time>2021-07-01T13:18:15Z</time>
      </trkpt>
      <trkpt lat="44.83569" lon="-1.12668">
        <ele>10.71</ele>
        <time>2021-07-01T13:18:16Z</time>
      </trkpt>
      <trkpt lat="44.83551" lon="-1.12674">
        <ele>11.19</ele>
        <time>2021-07-01T13:18:17Z</time>
      </trkpt>
      <trkpt lat="44.83532" lon="-1.1268">
        <ele>11.19</ele>
        <time>2021-07-01T13:18:18Z</time>
      </trkpt>
      <trkpt lat="44.8328" lon="-1.12726">
        <ele>8.31</ele>
        <time>2021-07-01T13:18:31Z</time>
      </trkpt>
      <trkpt lat="44.82739" lon="-1.12825">
        <ele>9.27</ele>
        <time>2021-07-01T13:18:55Z</time>
      </trkpt>
      <trkpt lat="44.82391" lon="-1.12888">
        <ele>7.83</ele>
        <time>2021-07-01T13:19:12Z</time>
      </trkpt>
      <trkpt lat="44.82064" lon="-1.12945">
        <ele>5.42</ele>
        <time>2021-07-01T13:19:30Z</time>
      </trkpt>
      <trkpt lat="44.81627" lon="-1.13018">
        <ele>4.94</ele>
        <time>2021-07-01T13:19:52Z</time>
      </trkpt>
      <trkpt lat="44.81266" lon="-1.13066">
        <ele>3.98</ele>
        <time>2021-07-01T13:20:10Z</time>
      </trkpt>
      <trkpt lat="44.80965" lon="-1.13106">
        <ele>3.5</ele>
        <time>2021-07-01T13:20:26Z</time>
      </trkpt>
      <trkpt lat="44.8074" lon="-1.13135">
        <ele>3.98</ele>
        <time>2021-07-01T13:20:38Z</time>
      </trkpt>
      <trkpt lat="44.80535" lon="-1.13164">
        <ele>3.98</ele>
        <time>2021-07-01T13:20:51Z</time>
      </trkpt>
      <trkpt lat="44.80422" lon="-1.13191">
        <ele>3.98</ele>
        <time>2021-07-01T13:20:59Z</time>
      </trkpt>
      <trkpt lat="44.80351" lon="-1.13245">
        <ele>3.5</ele>
        <time>2021-07-01T13:21:09Z</time>
      </trkpt>
      <trkpt lat="44.80274" lon="-1.13341">
        <ele>2.54</ele>
        <time>2021-07-01T13:21:20Z</time>
      </trkpt>
      <trkpt lat="44.80184" lon="-1.13491">
        <ele>3.02</ele>
        <time>2021-07-01T13:21:35Z</time>
      </trkpt>
      <trkpt lat="44.80157" lon="-1.13539">
        <ele>2.54</ele>
        <time>2021-07-01T13:21:46Z</time>
      </trkpt>
      <trkpt lat="44.80112" lon="-1.13647">
        <ele>2.06</ele>
        <time>2021-07-01T13:21:55Z</time>
      </trkpt>
      <trkpt lat="44.80035" lon="-1.13833">
        <ele>2.54</ele>
        <time>2021-07-01T13:22:09Z</time>
      </trkpt>
      <trkpt lat="44.79941" lon="-1.14054">
        <ele>1.58</ele>
        <time>2021-07-01T13:22:24Z</time>
      </trkpt>
      <trkpt lat="44.79862" lon="-1.14245">
        <ele>2.54</ele>
        <time>2021-07-01T13:22:39Z</time>
      </trkpt>
      <trkpt lat="44.79776" lon="-1.14431">
        <ele>1.58</ele>
        <time>2021-07-01T13:22:53Z</time>
      </trkpt>
      <trkpt lat="44.79676" lon="-1.14543">
        <ele>0.62</ele>
        <time>2021-07-01T13:23:04Z</time>
      </trkpt>
      <trkpt lat="44.79579" lon="-1.14644">
        <ele>-0.34</ele>
        <time>2021-07-01T13:23:16Z</time>
      </trkpt>
      <trkpt lat="44.79577" lon="-1.14647">
        <ele>-0.34</ele>
        <time>2021-07-01T13:23:17Z</time>
      </trkpt>
      <trkpt lat="44.7954" lon="-1.14681">
        <ele>0.14</ele>
        <time>2021-07-01T13:23:26Z</time>
      </trkpt>
      <trkpt lat="44.79496" lon="-1.14715">
        <ele>-0.34</ele>
        <time>2021-07-01T13:23:38Z</time>
      </trkpt>
      <trkpt lat="44.79446" lon="-1.14757">
        <ele>-0.34</ele>
        <time>2021-07-01T13:23:48Z</time>
      </trkpt>
      <trkpt lat="44.79371" lon="-1.14818">
        <ele>-1.3</ele>
        <time>2021-07-01T13:24:00Z</time>
      </trkpt>
      <trkpt lat="44.79272" lon="-1.14875">
        <ele>-1.3</ele>
        <time>2021-07-01T13:24:11Z</time>
      </trkpt>
      <trkpt lat="44.79174" lon="-1.14913">
        <ele>-3.23</ele>
        <time>2021-07-01T13:24:23Z</time>
      </trkpt>
      <trkpt lat="44.79085" lon="-1.14981">
        <ele>-3.23</ele>
        <time>2021-07-01T13:24:33Z</time>
      </trkpt>
      <trkpt lat="44.79085" lon="-1.14981">
        <ele>-2.75</ele>
        <time>2021-07-01T13:24:34Z</time>
      </trkpt>
      <trkpt lat="44.7908" lon="-1.14993">
        <ele>-2.75</ele>
        <time>2021-07-01T13:24:35Z</time>
      </trkpt>
      <trkpt lat="44.79075" lon="-1.15005">
        <ele>-2.27</ele>
        <time>2021-07-01T13:24:36Z</time>
      </trkpt>
      <trkpt lat="44.7907" lon="-1.15017">
        <ele>-2.75</ele>
        <time>2021-07-01T13:24:37Z</time>
      </trkpt>
      <trkpt lat="44.79066" lon="-1.15027">
        <ele>-2.27</ele>
        <time>2021-07-01T13:24:38Z</time>
      </trkpt>
      <trkpt lat="44.79063" lon="-1.15036">
        <ele>-1.3</ele>
        <time>2021-07-01T13:24:39Z</time>
      </trkpt>
      <trkpt lat="44.79059" lon="-1.15052">
        <ele>-0.82</ele>
        <time>2021-07-01T13:24:41Z</time>
      </trkpt>
      <trkpt lat="44.79057" lon="-1.15058">
        <ele>-1.3</ele>
        <time>2021-07-01T13:24:42Z</time>
      </trkpt>
      <trkpt lat="44.79056" lon="-1.15063">
        <ele>-1.3</ele>
        <time>2021-07-01T13:24:43Z</time>
      </trkpt>
      <trkpt lat="44.79057" lon="-1.15071">
        <ele>-1.3</ele>
        <time>2021-07-01T13:24:44Z</time>
      </trkpt>
      <trkpt lat="44.79059" lon="-1.15077">
        <ele>-1.3</ele>
        <time>2021-07-01T13:24:45Z</time>
      </trkpt>
      <trkpt lat="44.79061" lon="-1.15082">
        <ele>-1.3</ele>
        <time>2021-07-01T13:24:46Z</time>
      </trkpt>
      <trkpt lat="44.79059" lon="-1.15088">
        <ele>-1.3</ele>
        <time>2021-07-01T13:24:47Z</time>
      </trkpt>
      <trkpt lat="44.79057" lon="-1.1509">
        <ele>-1.3</ele>
        <time>2021-07-01T13:24:48Z</time>
      </trkpt>
      <trkpt lat="44.79049" lon="-1.15095">
        <ele>-1.3</ele>
        <time>2021-07-01T13:24:49Z</time>
      </trkpt>
      <trkpt lat="44.79049" lon="-1.15095">
        <ele>-1.3</ele>
        <time>2021-07-01T13:24:50Z</time>
      </trkpt>
      <trkpt lat="44.79049" lon="-1.15095">
        <ele>-1.3</ele>
        <time>2021-07-01T13:24:51Z</time>
      </trkpt>
      <trkpt lat="44.79046" lon="-1.15091">
        <ele>-1.3</ele>
        <time>2021-07-01T13:24:52Z</time>
      </trkpt>
      <trkpt lat="44.79042" lon="-1.15086">
        <ele>-0.82</ele>
        <time>2021-07-01T13:24:53Z</time>
      </trkpt>
      <trkpt lat="44.79041" lon="-1.15083">
        <ele>-1.3</ele>
        <time>2021-07-01T13:24:54Z</time>
      </trkpt>
      <trkpt lat="44.79043" lon="-1.15078">
        <ele>-1.3</ele>
        <time>2021-07-01T13:24:55Z</time>
      </trkpt>
      <trkpt lat="44.79045" lon="-1.15072">
        <ele>-1.3</ele>
        <time>2021-07-01T13:24:56Z</time>
      </trkpt>
      <trkpt lat="44.79045" lon="-1.15072">
        <ele>-1.3</ele>
        <time>2021-07-01T13:24:57Z</time>
      </trkpt>
      <trkpt lat="44.79047" lon="-1.15067">
        <ele>-1.3</ele>
        <time>2021-07-01T13:24:58Z</time>
      </trkpt>
      <trkpt lat="44.79053" lon="-1.15067">
        <ele>-1.79</ele>
        <time>2021-07-01T13:24:59Z</time>
      </trkpt>
      <trkpt lat="44.79056" lon="-1.15069">
        <ele>-2.27</ele>
        <time>2021-07-01T13:25:00Z</time>
      </trkpt>
      <trkpt lat="44.79056" lon="-1.15069">
        <ele>-2.27</ele>
        <time>2021-07-01T13:25:01Z</time>
      </trkpt>
      <trkpt lat="44.79058" lon="-1.15075">
        <ele>-2.27</ele>
        <time>2021-07-01T13:25:02Z</time>
      </trkpt>
      <trkpt lat="44.7906" lon="-1.1508">
        <ele>-2.27</ele>
        <time>2021-07-01T13:25:03Z</time>
      </trkpt>
      <trkpt lat="44.79058" lon="-1.15089">
        <ele>-2.75</ele>
        <time>2021-07-01T13:25:04Z</time>
      </trkpt>
      <trkpt lat="44.79049" lon="-1.151">
        <ele>-3.23</ele>
        <time>2021-07-01T13:25:05Z</time>
      </trkpt>
      <trkpt lat="44.79049" lon="-1.151">
        <ele>-3.23</ele>
        <time>2021-07-01T13:25:06Z</time>
      </trkpt>
      <trkpt lat="44.79048" lon="-1.15108">
        <ele>-3.23</ele>
        <time>2021-07-01T13:25:07Z</time>
      </trkpt>
      <trkpt lat="44.79048" lon="-1.15117">
        <ele>-3.71</ele>
        <time>2021-07-01T13:25:08Z</time>
      </trkpt>
      <trkpt lat="44.79047" lon="-1.15128">
        <ele>-3.71</ele>
        <time>2021-07-01T13:25:09Z</time>
      </trkpt>
      <trkpt lat="44.79046" lon="-1.15139">
        <ele>-3.71</ele>
        <time>2021-07-01T13:25:10Z</time>
      </trkpt>
      <trkpt lat="44.79047" lon="-1.15303">
        <ele>-6.59</ele>
        <time>2021-07-01T13:25:21Z</time>
      </trkpt>
      <trkpt lat="44.79049" lon="-1.15555">
        <ele>-7.55</ele>
        <time>2021-07-01T13:25:34Z</time>
      </trkpt>
      <trkpt lat="44.79031" lon="-1.15792">
        <ele>-5.15</ele>
        <time>2021-07-01T13:25:45Z</time>
      </trkpt>
      <trkpt lat="44.78989" lon="-1.16108">
        <ele>-0.82</ele>
        <time>2021-07-01T13:26:00Z</time>
      </trkpt>
      <trkpt lat="44.78961" lon="-1.16241">
        <ele>-3.71</ele>
        <time>2021-07-01T13:26:08Z</time>
      </trkpt>
      <trkpt lat="44.78954" lon="-1.16254">
        <ele>-3.71</ele>
        <time>2021-07-01T13:26:09Z</time>
      </trkpt>
      <trkpt lat="44.78946" lon="-1.16267">
        <ele>-3.23</ele>
        <time>2021-07-01T13:26:10Z</time>
      </trkpt>
      <trkpt lat="44.78937" lon="-1.16281">
        <ele>-3.71</ele>
        <time>2021-07-01T13:26:11Z</time>
      </trkpt>
      <trkpt lat="44.78928" lon="-1.16293">
        <ele>-3.71</ele>
        <time>2021-07-01T13:26:12Z</time>
      </trkpt>
      <trkpt lat="44.78917" lon="-1.16305">
        <ele>-4.19</ele>
        <time>2021-07-01T13:26:13Z</time>
      </trkpt>
      <trkpt lat="44.78905" lon="-1.16314">
        <ele>-4.19</ele>
        <time>2021-07-01T13:26:14Z</time>
      </trkpt>
      <trkpt lat="44.78893" lon="-1.16323">
        <ele>-4.67</ele>
        <time>2021-07-01T13:26:15Z</time>
      </trkpt>
      <trkpt lat="44.78705" lon="-1.16438">
        <ele>-7.55</ele>
        <time>2021-07-01T13:26:28Z</time>
      </trkpt>
      <trkpt lat="44.78505" lon="-1.16561">
        <ele>-7.07</ele>
        <time>2021-07-01T13:26:44Z</time>
      </trkpt>
      <trkpt lat="44.78419" lon="-1.16615">
        <ele>-7.55</ele>
        <time>2021-07-01T13:26:53Z</time>
      </trkpt>
      <trkpt lat="44.7841" lon="-1.1662">
        <ele>-7.07</ele>
        <time>2021-07-01T13:26:54Z</time>
      </trkpt>
      <trkpt lat="44.78364" lon="-1.16647">
        <ele>-9.48</ele>
        <time>2021-07-01T13:27:02Z</time>
      </trkpt>
      <trkpt lat="44.78349" lon="-1.16656">
        <ele>-10.44</ele>
        <time>2021-07-01T13:27:14Z</time>
      </trkpt>
    </trkseg>
  </trk>
</gpx>